sensor_id;sensor_type;location;lat;lon;timestamp;P1;durP1;ratioP1;P2;durP2;ratioP2
21868;SDS011;11099;41.564;23.296;2023-01-26T00:01:59;22.58;;;15.48;;
21868;SDS011;11099;41.564;23.296;2023-01-26T00:04:25;25.67;;;16.27;;
21868;SDS011;11099;41.564;23.296;2023-01-26T00:06:50;25.08;;;15.98;;
21868;SDS011;11099;41.564;23.296;2023-01-26T00:09:15;26.23;;;16.55;;
21868;SDS011;11099;41.564;23.296;2023-01-26T00:11:41;24.60;;;16.02;;
21868;SDS011;11099;41.564;23.296;2023-01-26T00:14:07;23.75;;;13.50;;
21868;SDS011;11099;41.564;23.296;2023-01-26T00:16:32;19.80;;;13.50;;
21868;SDS011;11099;41.564;23.296;2023-01-26T00:18:58;20.13;;;12.75;;
21868;SDS011;11099;41.564;23.296;2023-01-26T00:21:23;17.80;;;12.85;;
21868;SDS011;11099;41.564;23.296;2023-01-26T00:23:48;21.90;;;13.32;;
21868;SDS011;11099;41.564;23.296;2023-01-26T00:26:15;18.42;;;12.68;;
21868;SDS011;11099;41.564;23.296;2023-01-26T00:28:41;19.25;;;12.52;;
21868;SDS011;11099;41.564;23.296;2023-01-26T00:31:08;18.23;;;12.40;;
21868;SDS011;11099;41.564;23.296;2023-01-26T00:33:34;20.02;;;12.93;;
21868;SDS011;11099;41.564;23.296;2023-01-26T00:35:59;18.83;;;13.52;;
21868;SDS011;11099;41.564;23.296;2023-01-26T00:38:25;17.10;;;12.52;;
21868;SDS011;11099;41.564;23.296;2023-01-26T00:40:50;18.23;;;12.90;;
21868;SDS011;11099;41.564;23.296;2023-01-26T00:43:16;16.45;;;12.27;;
21868;SDS011;11099;41.564;23.296;2023-01-26T00:45:41;15.05;;;11.90;;
21868;SDS011;11099;41.564;23.296;2023-01-26T00:48:06;18.40;;;12.93;;
21868;SDS011;11099;41.564;23.296;2023-01-26T00:50:32;17.55;;;13.20;;
21868;SDS011;11099;41.564;23.296;2023-01-26T00:52:57;17.98;;;12.60;;
21868;SDS011;11099;41.564;23.296;2023-01-26T00:55:23;18.70;;;12.73;;
21868;SDS011;11099;41.564;23.296;2023-01-26T00:57:48;18.05;;;12.20;;
21868;SDS011;11099;41.564;23.296;2023-01-26T01:00:14;20.30;;;12.75;;
21868;SDS011;11099;41.564;23.296;2023-01-26T01:02:44;15.23;;;11.80;;
21868;SDS011;11099;41.564;23.296;2023-01-26T01:05:09;15.45;;;11.52;;
21868;SDS011;11099;41.564;23.296;2023-01-26T01:07:35;17.02;;;11.93;;
21868;SDS011;11099;41.564;23.296;2023-01-26T01:10:00;18.08;;;12.40;;
21868;SDS011;11099;41.564;23.296;2023-01-26T01:12:26;14.70;;;11.30;;
21868;SDS011;11099;41.564;23.296;2023-01-26T01:14:51;16.88;;;12.45;;
21868;SDS011;11099;41.564;23.296;2023-01-26T01:17:17;19.58;;;12.85;;
21868;SDS011;11099;41.564;23.296;2023-01-26T01:19:47;15.15;;;11.65;;
21868;SDS011;11099;41.564;23.296;2023-01-26T01:22:12;13.88;;;10.48;;
21868;SDS011;11099;41.564;23.296;2023-01-26T01:24:38;16.25;;;12.13;;
21868;SDS011;11099;41.564;23.296;2023-01-26T01:27:03;16.08;;;12.23;;
21868;SDS011;11099;41.564;23.296;2023-01-26T01:29:29;16.55;;;11.63;;
21868;SDS011;11099;41.564;23.296;2023-01-26T01:31:54;15.32;;;11.90;;
21868;SDS011;11099;41.564;23.296;2023-01-26T01:34:22;16.77;;;12.43;;
21868;SDS011;11099;41.564;23.296;2023-01-26T01:36:48;16.58;;;12.27;;
21868;SDS011;11099;41.564;23.296;2023-01-26T01:39:14;17.35;;;12.35;;
21868;SDS011;11099;41.564;23.296;2023-01-26T01:41:42;16.25;;;12.15;;
21868;SDS011;11099;41.564;23.296;2023-01-26T01:44:12;17.63;;;13.35;;
21868;SDS011;11099;41.564;23.296;2023-01-26T01:46:38;18.85;;;12.52;;
21868;SDS011;11099;41.564;23.296;2023-01-26T01:49:19;16.95;;;12.73;;
21868;SDS011;11099;41.564;23.296;2023-01-26T01:51:51;19.17;;;13.77;;
21868;SDS011;11099;41.564;23.296;2023-01-26T01:54:22;21.15;;;13.52;;
21868;SDS011;11099;41.564;23.296;2023-01-26T01:56:50;20.45;;;14.88;;
21868;SDS011;11099;41.564;23.296;2023-01-26T01:59:17;20.60;;;14.02;;
21868;SDS011;11099;41.564;23.296;2023-01-26T02:01:45;18.30;;;13.55;;
21868;SDS011;11099;41.564;23.296;2023-01-26T02:04:13;19.80;;;13.60;;
21868;SDS011;11099;41.564;23.296;2023-01-26T02:06:40;18.17;;;14.05;;
21868;SDS011;11099;41.564;23.296;2023-01-26T02:09:07;18.00;;;13.18;;
21868;SDS011;11099;41.564;23.296;2023-01-26T02:11:54;17.77;;;12.80;;
21868;SDS011;11099;41.564;23.296;2023-01-26T02:14:19;16.65;;;12.93;;
21868;SDS011;11099;41.564;23.296;2023-01-26T02:16:45;18.42;;;12.02;;
21868;SDS011;11099;41.564;23.296;2023-01-26T02:19:13;16.95;;;12.70;;
21868;SDS011;11099;41.564;23.296;2023-01-26T02:21:42;19.13;;;12.18;;
21868;SDS011;11099;41.564;23.296;2023-01-26T02:24:13;16.65;;;12.52;;
21868;SDS011;11099;41.564;23.296;2023-01-26T02:26:41;16.55;;;12.40;;
21868;SDS011;11099;41.564;23.296;2023-01-26T02:29:09;15.45;;;12.10;;
21868;SDS011;11099;41.564;23.296;2023-01-26T02:31:35;15.85;;;12.23;;
21868;SDS011;11099;41.564;23.296;2023-01-26T02:34:01;17.88;;;13.25;;
21868;SDS011;11099;41.564;23.296;2023-01-26T02:36:31;15.98;;;12.20;;
21868;SDS011;11099;41.564;23.296;2023-01-26T02:41:35;19.05;;;13.18;;
21868;SDS011;11099;41.564;23.296;2023-01-26T02:44:19;19.90;;;12.65;;
21868;SDS011;11099;41.564;23.296;2023-01-26T02:46:45;19.52;;;13.93;;
21868;SDS011;11099;41.564;23.296;2023-01-26T02:49:10;22.23;;;14.35;;
21868;SDS011;11099;41.564;23.296;2023-01-26T02:51:54;21.85;;;14.93;;
21868;SDS011;11099;41.564;23.296;2023-01-26T02:54:19;20.83;;;14.48;;
21868;SDS011;11099;41.564;23.296;2023-01-26T02:57:03;21.33;;;16.10;;
21868;SDS011;11099;41.564;23.296;2023-01-26T02:59:29;22.88;;;15.18;;
21868;SDS011;11099;41.564;23.296;2023-01-26T03:01:54;23.55;;;16.23;;
21868;SDS011;11099;41.564;23.296;2023-01-26T03:04:20;21.90;;;15.68;;
21868;SDS011;11099;41.564;23.296;2023-01-26T03:06:45;26.13;;;17.00;;
21868;SDS011;11099;41.564;23.296;2023-01-26T03:09:11;24.33;;;16.40;;
21868;SDS011;11099;41.564;23.296;2023-01-26T03:11:36;26.13;;;16.63;;
21868;SDS011;11099;41.564;23.296;2023-01-26T03:14:11;22.58;;;15.23;;
21868;SDS011;11099;41.564;23.296;2023-01-26T03:19:02;23.60;;;16.63;;
21868;SDS011;11099;41.564;23.296;2023-01-26T03:21:28;25.52;;;16.75;;
21868;SDS011;11099;41.564;23.296;2023-01-26T03:24:12;23.77;;;15.90;;
21868;SDS011;11099;41.564;23.296;2023-01-26T03:26:56;23.35;;;15.80;;
21868;SDS011;11099;41.564;23.296;2023-01-26T03:29:40;24.65;;;16.48;;
21868;SDS011;11099;41.564;23.296;2023-01-26T03:32:05;24.42;;;15.73;;
21868;SDS011;11099;41.564;23.296;2023-01-26T03:34:30;26.10;;;16.52;;
21868;SDS011;11099;41.564;23.296;2023-01-26T03:36:56;23.25;;;16.70;;
21868;SDS011;11099;41.564;23.296;2023-01-26T03:39:21;23.88;;;15.10;;
21868;SDS011;11099;41.564;23.296;2023-01-26T03:42:05;22.00;;;15.63;;
21868;SDS011;11099;41.564;23.296;2023-01-26T03:44:49;24.30;;;16.38;;
21868;SDS011;11099;41.564;23.296;2023-01-26T03:47:34;23.00;;;15.88;;
21868;SDS011;11099;41.564;23.296;2023-01-26T03:50:18;24.33;;;16.20;;
21868;SDS011;11099;41.564;23.296;2023-01-26T03:53:02;23.80;;;15.10;;
21868;SDS011;11099;41.564;23.296;2023-01-26T03:55:46;24.60;;;16.17;;
21868;SDS011;11099;41.564;23.296;2023-01-26T03:58:29;24.27;;;16.02;;
21868;SDS011;11099;41.564;23.296;2023-01-26T04:00:55;18.60;;;13.98;;
21868;SDS011;11099;41.564;23.296;2023-01-26T04:03:21;22.27;;;15.43;;
21868;SDS011;11099;41.564;23.296;2023-01-26T04:06:04;22.45;;;14.93;;
21868;SDS011;11099;41.564;23.296;2023-01-26T04:08:48;23.00;;;14.70;;
21868;SDS011;11099;41.564;23.296;2023-01-26T04:11:14;20.67;;;13.88;;
21868;SDS011;11099;41.564;23.296;2023-01-26T04:13:39;21.10;;;14.73;;
21868;SDS011;11099;41.564;23.296;2023-01-26T04:16:23;21.17;;;14.45;;
21868;SDS011;11099;41.564;23.296;2023-01-26T04:19:07;22.73;;;14.50;;
21868;SDS011;11099;41.564;23.296;2023-01-26T04:21:51;19.25;;;13.85;;
21868;SDS011;11099;41.564;23.296;2023-01-26T04:24:16;24.67;;;14.65;;
21868;SDS011;11099;41.564;23.296;2023-01-26T04:26:42;21.83;;;14.40;;
21868;SDS011;11099;41.564;23.296;2023-01-26T04:29:10;20.52;;;14.57;;
21868;SDS011;11099;41.564;23.296;2023-01-26T04:31:36;28.48;;;17.58;;
21868;SDS011;11099;41.564;23.296;2023-01-26T04:34:03;25.67;;;17.55;;
21868;SDS011;11099;41.564;23.296;2023-01-26T04:36:28;26.25;;;17.73;;
21868;SDS011;11099;41.564;23.296;2023-01-26T04:38:54;25.38;;;17.52;;
21868;SDS011;11099;41.564;23.296;2023-01-26T04:41:19;22.73;;;14.57;;
21868;SDS011;11099;41.564;23.296;2023-01-26T04:43:44;22.25;;;15.20;;
21868;SDS011;11099;41.564;23.296;2023-01-26T04:46:10;36.20;;;21.67;;
21868;SDS011;11099;41.564;23.296;2023-01-26T04:48:36;25.58;;;15.15;;
21868;SDS011;11099;41.564;23.296;2023-01-26T04:51:03;17.98;;;13.80;;
21868;SDS011;11099;41.564;23.296;2023-01-26T04:53:30;22.42;;;16.13;;
21868;SDS011;11099;41.564;23.296;2023-01-26T04:55:56;22.40;;;15.27;;
21868;SDS011;11099;41.564;23.296;2023-01-26T04:58:27;19.13;;;13.10;;
21868;SDS011;11099;41.564;23.296;2023-01-26T05:00:53;20.75;;;15.02;;
21868;SDS011;11099;41.564;23.296;2023-01-26T05:03:20;22.00;;;15.23;;
21868;SDS011;11099;41.564;23.296;2023-01-26T05:05:47;18.98;;;14.18;;
21868;SDS011;11099;41.564;23.296;2023-01-26T05:08:14;16.63;;;12.20;;
21868;SDS011;11099;41.564;23.296;2023-01-26T05:10:40;18.00;;;13.20;;
21868;SDS011;11099;41.564;23.296;2023-01-26T05:13:05;19.88;;;15.15;;
21868;SDS011;11099;41.564;23.296;2023-01-26T05:15:31;20.58;;;15.85;;
21868;SDS011;11099;41.564;23.296;2023-01-26T05:17:57;20.55;;;15.73;;
21868;SDS011;11099;41.564;23.296;2023-01-26T05:20:23;23.52;;;15.07;;
21868;SDS011;11099;41.564;23.296;2023-01-26T05:22:49;18.67;;;16.02;;
21868;SDS011;11099;41.564;23.296;2023-01-26T05:25:14;28.55;;;18.58;;
21868;SDS011;11099;41.564;23.296;2023-01-26T05:27:39;54.45;;;20.85;;
21868;SDS011;11099;41.564;23.296;2023-01-26T05:30:06;244.80;;;32.80;;
21868;SDS011;11099;41.564;23.296;2023-01-26T05:32:32;66.20;;;23.73;;
21868;SDS011;11099;41.564;23.296;2023-01-26T05:34:57;245.00;;;32.80;;
21868;SDS011;11099;41.564;23.296;2023-01-26T05:37:23;229.95;;;31.10;;
21868;SDS011;11099;41.564;23.296;2023-01-26T05:39:48;226.95;;;31.73;;
21868;SDS011;11099;41.564;23.296;2023-01-26T05:42:14;274.58;;;31.75;;
21868;SDS011;11099;41.564;23.296;2023-01-26T05:44:39;188.10;;;27.90;;
21868;SDS011;11099;41.564;23.296;2023-01-26T05:47:04;69.97;;;17.38;;
21868;SDS011;11099;41.564;23.296;2023-01-26T05:49:30;16.17;;;12.13;;
21868;SDS011;11099;41.564;23.296;2023-01-26T05:51:55;14.95;;;11.52;;
21868;SDS011;11099;41.564;23.296;2023-01-26T05:54:20;14.07;;;10.82;;
21868;SDS011;11099;41.564;23.296;2023-01-26T05:56:46;15.32;;;11.27;;
21868;SDS011;11099;41.564;23.296;2023-01-26T05:59:11;12.18;;;9.13;;
21868;SDS011;11099;41.564;23.296;2023-01-26T06:01:36;12.23;;;8.90;;
21868;SDS011;11099;41.564;23.296;2023-01-26T06:04:03;10.32;;;8.32;;
21868;SDS011;11099;41.564;23.296;2023-01-26T06:06:28;10.27;;;8.68;;
21868;SDS011;11099;41.564;23.296;2023-01-26T06:08:53;9.73;;;8.52;;
21868;SDS011;11099;41.564;23.296;2023-01-26T06:11:19;8.88;;;7.78;;
21868;SDS011;11099;41.564;23.296;2023-01-26T06:13:44;7.32;;;6.63;;
21868;SDS011;11099;41.564;23.296;2023-01-26T06:16:09;7.65;;;6.30;;
21868;SDS011;11099;41.564;23.296;2023-01-26T06:18:35;8.60;;;6.75;;
21868;SDS011;11099;41.564;23.296;2023-01-26T06:21:00;7.15;;;6.45;;
21868;SDS011;11099;41.564;23.296;2023-01-26T06:23:26;7.82;;;6.78;;
21868;SDS011;11099;41.564;23.296;2023-01-26T06:25:51;7.82;;;7.03;;
21868;SDS011;11099;41.564;23.296;2023-01-26T06:28:17;8.40;;;7.47;;
21868;SDS011;11099;41.564;23.296;2023-01-26T06:30:44;8.10;;;7.15;;
21868;SDS011;11099;41.564;23.296;2023-01-26T06:33:09;8.68;;;7.75;;
21868;SDS011;11099;41.564;23.296;2023-01-26T06:35:35;9.88;;;8.25;;
21868;SDS011;11099;41.564;23.296;2023-01-26T06:38:00;10.25;;;8.55;;
21868;SDS011;11099;41.564;23.296;2023-01-26T06:40:26;10.48;;;8.82;;
21868;SDS011;11099;41.564;23.296;2023-01-26T06:42:51;11.07;;;9.05;;
21868;SDS011;11099;41.564;23.296;2023-01-26T06:45:16;13.30;;;9.77;;
21868;SDS011;11099;41.564;23.296;2023-01-26T06:47:48;20.10;;;10.38;;
21868;SDS011;11099;41.564;23.296;2023-01-26T06:50:14;26.23;;;13.98;;
21868;SDS011;11099;41.564;23.296;2023-01-26T06:52:40;27.73;;;13.88;;
21868;SDS011;11099;41.564;23.296;2023-01-26T06:55:08;14.85;;;12.20;;
21868;SDS011;11099;41.564;23.296;2023-01-26T06:57:39;14.32;;;12.35;;
21868;SDS011;11099;41.564;23.296;2023-01-26T07:00:04;36.22;;;12.65;;
21868;SDS011;11099;41.564;23.296;2023-01-26T07:02:30;27.15;;;11.70;;
21868;SDS011;11099;41.564;23.296;2023-01-26T07:04:55;28.73;;;13.10;;
21868;SDS011;11099;41.564;23.296;2023-01-26T07:07:20;40.35;;;16.90;;
21868;SDS011;11099;41.564;23.296;2023-01-26T07:09:46;30.85;;;12.40;;
21868;SDS011;11099;41.564;23.296;2023-01-26T07:12:11;12.90;;;10.52;;
21868;SDS011;11099;41.564;23.296;2023-01-26T07:14:36;26.67;;;13.10;;
21868;SDS011;11099;41.564;23.296;2023-01-26T07:17:02;52.30;;;12.75;;
21868;SDS011;11099;41.564;23.296;2023-01-26T07:19:27;20.02;;;15.80;;
21868;SDS011;11099;41.564;23.296;2023-01-26T07:21:55;13.85;;;10.48;;
21868;SDS011;11099;41.564;23.296;2023-01-26T07:24:20;12.05;;;10.35;;
21868;SDS011;11099;41.564;23.296;2023-01-26T07:26:46;18.45;;;14.02;;
21868;SDS011;11099;41.564;23.296;2023-01-26T07:29:11;19.85;;;14.10;;
21868;SDS011;11099;41.564;23.296;2023-01-26T07:31:37;13.02;;;10.82;;
21868;SDS011;11099;41.564;23.296;2023-01-26T07:34:02;26.35;;;11.60;;
21868;SDS011;11099;41.564;23.296;2023-01-26T07:36:27;50.70;;;12.05;;
21868;SDS011;11099;41.564;23.296;2023-01-26T07:38:53;21.08;;;11.60;;
21868;SDS011;11099;41.564;23.296;2023-01-26T07:41:18;318.40;;;22.50;;
21868;SDS011;11099;41.564;23.296;2023-01-26T07:43:44;191.40;;;17.60;;
21868;SDS011;11099;41.564;23.296;2023-01-26T07:46:09;275.70;;;21.90;;
21868;SDS011;11099;41.564;23.296;2023-01-26T07:48:34;371.23;;;30.30;;
21868;SDS011;11099;41.564;23.296;2023-01-26T07:51:00;113.68;;;16.67;;
21868;SDS011;11099;41.564;23.296;2023-01-26T07:53:27;21.65;;;12.77;;
21868;SDS011;11099;41.564;23.296;2023-01-26T07:55:54;50.80;;;13.18;;
21868;SDS011;11099;41.564;23.296;2023-01-26T07:58:20;16.25;;;11.57;;
21868;SDS011;11099;41.564;23.296;2023-01-26T08:00:45;18.50;;;12.32;;
21868;SDS011;11099;41.564;23.296;2023-01-26T08:03:11;16.33;;;12.77;;
21868;SDS011;11099;41.564;23.296;2023-01-26T08:05:36;22.48;;;12.65;;
21868;SDS011;11099;41.564;23.296;2023-01-26T08:08:02;130.35;;;19.35;;
21868;SDS011;11099;41.564;23.296;2023-01-26T08:10:28;230.93;;;25.40;;
21868;SDS011;11099;41.564;23.296;2023-01-26T08:12:59;294.33;;;26.92;;
21868;SDS011;11099;41.564;23.296;2023-01-26T08:15:25;110.10;;;16.02;;
21868;SDS011;11099;41.564;23.296;2023-01-26T08:17:51;43.22;;;13.50;;
21868;SDS011;11099;41.564;23.296;2023-01-26T08:20:17;33.10;;;13.30;;
21868;SDS011;11099;41.564;23.296;2023-01-26T08:22:42;281.55;;;26.00;;
21868;SDS011;11099;41.564;23.296;2023-01-26T08:25:08;15.93;;;11.40;;
21868;SDS011;11099;41.564;23.296;2023-01-26T08:27:33;109.93;;;19.77;;
21868;SDS011;11099;41.564;23.296;2023-01-26T08:29:59;17.63;;;12.20;;
21868;SDS011;11099;41.564;23.296;2023-01-26T08:32:24;16.05;;;12.23;;
21868;SDS011;11099;41.564;23.296;2023-01-26T08:34:49;12.23;;;10.35;;
21868;SDS011;11099;41.564;23.296;2023-01-26T08:37:15;13.32;;;11.05;;
21868;SDS011;11099;41.564;23.296;2023-01-26T08:39:40;21.50;;;12.18;;
21868;SDS011;11099;41.564;23.296;2023-01-26T08:42:05;119.80;;;18.23;;
21868;SDS011;11099;41.564;23.296;2023-01-26T08:44:31;64.13;;;15.02;;
21868;SDS011;11099;41.564;23.296;2023-01-26T08:46:56;26.63;;;14.95;;
21868;SDS011;11099;41.564;23.296;2023-01-26T08:49:21;24.00;;;12.90;;
21868;SDS011;11099;41.564;23.296;2023-01-26T08:51:47;20.15;;;13.25;;
21868;SDS011;11099;41.564;23.296;2023-01-26T08:54:12;17.60;;;12.65;;
21868;SDS011;11099;41.564;23.296;2023-01-26T08:56:37;14.63;;;11.23;;
21868;SDS011;11099;41.564;23.296;2023-01-26T08:59:03;15.52;;;11.57;;
21868;SDS011;11099;41.564;23.296;2023-01-26T09:01:28;16.63;;;12.48;;
21868;SDS011;11099;41.564;23.296;2023-01-26T09:03:54;16.00;;;12.30;;
21868;SDS011;11099;41.564;23.296;2023-01-26T09:06:22;19.03;;;12.37;;
21868;SDS011;11099;41.564;23.296;2023-01-26T09:08:48;21.00;;;14.23;;
21868;SDS011;11099;41.564;23.296;2023-01-26T09:11:14;20.17;;;14.02;;
21868;SDS011;11099;41.564;23.296;2023-01-26T09:13:40;20.52;;;13.65;;
21868;SDS011;11099;41.564;23.296;2023-01-26T09:16:07;18.60;;;14.07;;
21868;SDS011;11099;41.564;23.296;2023-01-26T09:18:33;22.45;;;15.13;;
21868;SDS011;11099;41.564;23.296;2023-01-26T09:21:02;20.33;;;14.60;;
21868;SDS011;11099;41.564;23.296;2023-01-26T09:25:53;19.07;;;14.67;;
21868;SDS011;11099;41.564;23.296;2023-01-26T09:28:18;18.33;;;14.27;;
21868;SDS011;11099;41.564;23.296;2023-01-26T09:30:43;18.90;;;13.98;;
21868;SDS011;11099;41.564;23.296;2023-01-26T09:33:09;19.67;;;14.05;;
21868;SDS011;11099;41.564;23.296;2023-01-26T09:35:35;18.50;;;13.80;;
21868;SDS011;11099;41.564;23.296;2023-01-26T09:38:01;23.58;;;14.68;;
21868;SDS011;11099;41.564;23.296;2023-01-26T09:45:38;21.33;;;14.75;;
21868;SDS011;11099;41.564;23.296;2023-01-26T09:48:16;23.38;;;15.20;;
21868;SDS011;11099;41.564;23.296;2023-01-26T09:50:53;19.00;;;14.33;;
21868;SDS011;11099;41.564;23.296;2023-01-26T09:56:14;19.05;;;14.00;;
21868;SDS011;11099;41.564;23.296;2023-01-26T09:58:45;20.90;;;15.23;;
21868;SDS011;11099;41.564;23.296;2023-01-26T10:01:41;18.40;;;14.48;;
21868;SDS011;11099;41.564;23.296;2023-01-26T10:04:17;21.80;;;14.57;;
21868;SDS011;11099;41.564;23.296;2023-01-26T10:06:46;21.45;;;16.02;;
21868;SDS011;11099;41.564;23.296;2023-01-26T10:09:14;18.98;;;14.20;;
21868;SDS011;11099;41.564;23.296;2023-01-26T10:11:42;18.80;;;13.77;;
21868;SDS011;11099;41.564;23.296;2023-01-26T10:14:31;15.35;;;12.07;;
21868;SDS011;11099;41.564;23.296;2023-01-26T10:16:57;14.93;;;11.95;;
21868;SDS011;11099;41.564;23.296;2023-01-26T10:21:56;13.60;;;10.93;;
21868;SDS011;11099;41.564;23.296;2023-01-26T10:24:23;13.85;;;11.13;;
21868;SDS011;11099;41.564;23.296;2023-01-26T10:26:49;13.65;;;10.45;;
21868;SDS011;11099;41.564;23.296;2023-01-26T10:29:16;13.98;;;10.88;;
21868;SDS011;11099;41.564;23.296;2023-01-26T10:31:42;12.50;;;9.60;;
21868;SDS011;11099;41.564;23.296;2023-01-26T10:34:15;12.25;;;9.60;;
21868;SDS011;11099;41.564;23.296;2023-01-26T10:36:43;12.40;;;10.20;;
21868;SDS011;11099;41.564;23.296;2023-01-26T10:39:10;11.00;;;9.40;;
21868;SDS011;11099;41.564;23.296;2023-01-26T10:41:36;13.95;;;9.88;;
21868;SDS011;11099;41.564;23.296;2023-01-26T10:44:02;13.40;;;10.40;;
21868;SDS011;11099;41.564;23.296;2023-01-26T10:49:21;12.27;;;9.68;;
21868;SDS011;11099;41.564;23.296;2023-01-26T10:52:03;12.93;;;10.25;;
21868;SDS011;11099;41.564;23.296;2023-01-26T10:54:29;11.95;;;9.25;;
21868;SDS011;11099;41.564;23.296;2023-01-26T10:57:02;13.02;;;10.07;;
21868;SDS011;11099;41.564;23.296;2023-01-26T10:59:43;24.73;;;13.88;;
21868;SDS011;11099;41.564;23.296;2023-01-26T11:07:24;19.48;;;13.30;;
21868;SDS011;11099;41.564;23.296;2023-01-26T11:09:50;19.23;;;12.40;;
21868;SDS011;11099;41.564;23.296;2023-01-26T11:12:17;17.45;;;12.05;;
21868;SDS011;11099;41.564;23.296;2023-01-26T11:14:46;37.47;;;19.88;;
21868;SDS011;11099;41.564;23.296;2023-01-26T11:17:24;19.08;;;13.02;;
21868;SDS011;11099;41.564;23.296;2023-01-26T11:22:23;14.73;;;11.60;;
21868;SDS011;11099;41.564;23.296;2023-01-26T11:47:52;13.20;;;10.15;;
21868;SDS011;11099;41.564;23.296;2023-01-26T11:55:46;13.60;;;10.55;;
21868;SDS011;11099;41.564;23.296;2023-01-26T11:58:20;13.43;;;9.93;;
21868;SDS011;11099;41.564;23.296;2023-01-26T12:00:51;15.38;;;11.30;;
21868;SDS011;11099;41.564;23.296;2023-01-26T12:05:43;14.10;;;10.90;;
21868;SDS011;11099;41.564;23.296;2023-01-26T12:10:36;14.63;;;10.70;;
21868;SDS011;11099;41.564;23.296;2023-01-26T12:15:33;13.10;;;10.35;;
21868;SDS011;11099;41.564;23.296;2023-01-26T12:18:04;12.55;;;10.80;;
21868;SDS011;11099;41.564;23.296;2023-01-26T12:33:22;13.90;;;11.07;;
21868;SDS011;11099;41.564;23.296;2023-01-26T12:38:35;13.70;;;11.13;;
21868;SDS011;11099;41.564;23.296;2023-01-26T12:41:12;15.52;;;11.40;;
21868;SDS011;11099;41.564;23.296;2023-01-26T12:43:51;14.63;;;11.65;;
21868;SDS011;11099;41.564;23.296;2023-01-26T12:46:19;15.27;;;12.05;;
21868;SDS011;11099;41.564;23.296;2023-01-26T12:48:47;13.38;;;11.05;;
21868;SDS011;11099;41.564;23.296;2023-01-26T12:51:28;13.68;;;10.52;;
21868;SDS011;11099;41.564;23.296;2023-01-26T12:56:53;15.25;;;11.52;;
21868;SDS011;11099;41.564;23.296;2023-01-26T12:59:27;14.43;;;10.35;;
21868;SDS011;11099;41.564;23.296;2023-01-26T13:01:55;14.75;;;10.90;;
21868;SDS011;11099;41.564;23.296;2023-01-26T13:04:20;15.60;;;11.27;;
21868;SDS011;11099;41.564;23.296;2023-01-26T13:06:50;14.90;;;11.13;;
21868;SDS011;11099;41.564;23.296;2023-01-26T13:09:24;15.95;;;11.63;;
21868;SDS011;11099;41.564;23.296;2023-01-26T13:11:51;15.40;;;11.10;;
21868;SDS011;11099;41.564;23.296;2023-01-26T13:20:14;14.80;;;11.55;;
21868;SDS011;11099;41.564;23.296;2023-01-26T13:22:39;15.73;;;12.18;;
21868;SDS011;11099;41.564;23.296;2023-01-26T13:27:59;22.35;;;14.25;;
21868;SDS011;11099;41.564;23.296;2023-01-26T13:33:00;18.17;;;13.18;;
21868;SDS011;11099;41.564;23.296;2023-01-26T13:35:26;14.27;;;10.95;;
21868;SDS011;11099;41.564;23.296;2023-01-26T13:40:21;15.88;;;12.15;;
21868;SDS011;11099;41.564;23.296;2023-01-26T13:45:22;20.80;;;15.07;;
21868;SDS011;11099;41.564;23.296;2023-01-26T13:47:51;19.35;;;14.95;;
21868;SDS011;11099;41.564;23.296;2023-01-26T13:52:46;16.65;;;12.77;;
21868;SDS011;11099;41.564;23.296;2023-01-26T13:55:12;15.45;;;11.35;;
21868;SDS011;11099;41.564;23.296;2023-01-26T13:57:45;17.40;;;13.00;;
21868;SDS011;11099;41.564;23.296;2023-01-26T14:00:13;17.77;;;12.85;;
21868;SDS011;11099;41.564;23.296;2023-01-26T14:02:39;17.90;;;13.77;;
21868;SDS011;11099;41.564;23.296;2023-01-26T14:05:19;15.40;;;11.82;;
21868;SDS011;11099;41.564;23.296;2023-01-26T14:07:44;22.15;;;15.02;;
21868;SDS011;11099;41.564;23.296;2023-01-26T14:10:19;19.15;;;14.40;;
21868;SDS011;11099;41.564;23.296;2023-01-26T14:12:46;15.43;;;11.65;;
21868;SDS011;11099;41.564;23.296;2023-01-26T14:15:26;15.93;;;11.82;;
21868;SDS011;11099;41.564;23.296;2023-01-26T14:17:59;16.35;;;13.10;;
21868;SDS011;11099;41.564;23.296;2023-01-26T14:25:31;15.85;;;12.63;;
21868;SDS011;11099;41.564;23.296;2023-01-26T14:27:57;14.45;;;11.98;;
21868;SDS011;11099;41.564;23.296;2023-01-26T14:30:27;19.75;;;12.38;;
21868;SDS011;11099;41.564;23.296;2023-01-26T14:33:12;16.50;;;12.25;;
21868;SDS011;11099;41.564;23.296;2023-01-26T14:35:38;15.98;;;11.65;;
21868;SDS011;11099;41.564;23.296;2023-01-26T14:38:04;23.77;;;17.52;;
21868;SDS011;11099;41.564;23.296;2023-01-26T14:40:30;19.00;;;13.57;;
21868;SDS011;11099;41.564;23.296;2023-01-26T14:42:55;19.63;;;14.07;;
21868;SDS011;11099;41.564;23.296;2023-01-26T14:45:25;16.08;;;12.05;;
21868;SDS011;11099;41.564;23.296;2023-01-26T14:47:53;20.05;;;12.90;;
21868;SDS011;11099;41.564;23.296;2023-01-26T14:50:22;29.20;;;22.80;;
21868;SDS011;11099;41.564;23.296;2023-01-26T14:52:51;19.40;;;14.32;;
21868;SDS011;11099;41.564;23.296;2023-01-26T14:55:26;17.52;;;13.25;;
21868;SDS011;11099;41.564;23.296;2023-01-26T14:57:53;16.92;;;11.88;;
21868;SDS011;11099;41.564;23.296;2023-01-26T15:00:30;13.85;;;10.80;;
21868;SDS011;11099;41.564;23.296;2023-01-26T15:02:58;16.65;;;13.65;;
21868;SDS011;11099;41.564;23.296;2023-01-26T15:05:34;15.85;;;12.77;;
21868;SDS011;11099;41.564;23.296;2023-01-26T15:08:00;13.50;;;10.02;;
21868;SDS011;11099;41.564;23.296;2023-01-26T15:10:40;12.48;;;10.15;;
21868;SDS011;11099;41.564;23.296;2023-01-26T15:15:35;12.27;;;10.47;;
21868;SDS011;11099;41.564;23.296;2023-01-26T15:22:52;22.73;;;18.70;;
21868;SDS011;11099;41.564;23.296;2023-01-26T15:27:53;17.50;;;13.63;;
21868;SDS011;11099;41.564;23.296;2023-01-26T15:30:26;15.05;;;12.48;;
21868;SDS011;11099;41.564;23.296;2023-01-26T15:32:51;21.70;;;17.23;;
21868;SDS011;11099;41.564;23.296;2023-01-26T15:37:42;43.58;;;29.90;;
21868;SDS011;11099;41.564;23.296;2023-01-26T15:40:07;48.08;;;32.28;;
21868;SDS011;11099;41.564;23.296;2023-01-26T15:42:33;54.28;;;39.53;;
21868;SDS011;11099;41.564;23.296;2023-01-26T15:44:58;42.05;;;29.27;;
21868;SDS011;11099;41.564;23.296;2023-01-26T15:47:24;40.20;;;28.73;;
21868;SDS011;11099;41.564;23.296;2023-01-26T15:49:49;30.67;;;23.38;;
21868;SDS011;11099;41.564;23.296;2023-01-26T15:52:15;30.17;;;20.65;;
21868;SDS011;11099;41.564;23.296;2023-01-26T15:54:41;33.00;;;23.23;;
21868;SDS011;11099;41.564;23.296;2023-01-26T15:57:06;37.65;;;26.70;;
21868;SDS011;11099;41.564;23.296;2023-01-26T15:59:37;34.33;;;25.23;;
21868;SDS011;11099;41.564;23.296;2023-01-26T16:02:03;32.40;;;25.35;;
21868;SDS011;11099;41.564;23.296;2023-01-26T16:04:28;43.17;;;30.25;;
21868;SDS011;11099;41.564;23.296;2023-01-26T16:06:54;47.65;;;34.78;;
21868;SDS011;11099;41.564;23.296;2023-01-26T16:09:20;50.88;;;35.10;;
21868;SDS011;11099;41.564;23.296;2023-01-26T16:11:46;45.80;;;32.33;;
21868;SDS011;11099;41.564;23.296;2023-01-26T16:14:12;46.90;;;32.08;;